Vickery, Ohio
Current Conditions -  °F | °C
As of 9:52 AM on Monday 24 Nov 2014 (Local Time) from KPCW Reporting Station
Light Rain Light Rain  
Wind Chill: 61°   Ceiling: 3400
Heat Index: 61°   Visibility: 7mi
Dew Point: 54°   Wind: 29mph
Humidity: 77%   Direction: 240°WSW
Pressure: 29.22"   Gusts: 37mph
Location:  41.38°N, 82.93°W
Report Text: KPCW 241452Z AUTO 24025G32KT 7SM -RA SCT023 BKN034 BKN050 16/12 A2922 RMK
Loading
Personal Weather Stations






























Interactive Weather Map New forecast layout! Learn more

10-Day Weather Forecast

Advertisements
Track Severe Weather on mobile